Time;durP1;ratioP1;P1;durP2;ratioP2;P2;SDS_P1;SDS_P2;PMS_P1;PMS_P2;Temp;Humidity;BMP_temperature;BMP_pressure;BME280_temperature;BME280_humidity;BME280_pressure;Samples;Min_cycle;Max_cycle;Signal;HPM_P1;HPM_P2
2022/11/11 00:00:23;;;;;;;16.13;5.75;;;10.50;99.90;;;;;;5089064;28;20080;-81
2022/11/11 00:02:49;;;;;;;13.15;4.75;;;10.50;99.90;;;;;;5071323;28;20401;-82
2022/11/11 00:05:15;;;;;;;14.65;5.13;;;10.40;99.90;;;;;;5090417;28;20036;-82
2022/11/11 00:07:42;;;;;;;15.13;5.50;;;10.40;99.90;;;;;;5090956;28;20032;-82
2022/11/11 00:10:08;;;;;;;12.20;4.65;;;10.40;99.90;;;;;;5090459;28;20036;-82
2022/11/11 00:12:34;;;;;;;17.83;5.30;;;10.40;99.90;;;;;;5090450;28;20066;-82
2022/11/11 00:15:00;;;;;;;11.23;4.97;;;10.40;99.90;;;;;;5073888;28;20482;-82
2022/11/11 00:25:38;;;;;;;11.00;4.55;;;10.40;99.90;;;;;;5087839;28;20087;-82
2022/11/11 00:28:04;;;;;;;16.20;7.20;;;10.50;99.90;;;;;;5090352;28;20474;-82
2022/11/11 00:30:29;;;;;;;14.38;4.93;;;10.50;99.90;;;;;;5090504;28;20459;-81
2022/11/11 00:32:55;;;;;;;11.15;5.25;;;10.50;99.90;;;;;;5073295;28;20040;-81
2022/11/11 00:38:08;;;;;;;12.82;5.43;;;10.50;99.90;;;;;;5090585;28;20040;-81
2022/11/11 00:40:33;;;;;;;10.15;4.55;;;10.50;99.90;;;;;;5090573;28;20048;-81
2022/11/11 00:42:59;;;;;;;13.75;6.03;;;10.50;99.90;;;;;;5073237;28;20043;-81
2022/11/11 00:45:24;;;;;;;12.65;4.53;;;10.50;99.90;;;;;;5073785;28;20024;-81
2022/11/11 00:53:20;;;;;;;14.18;5.97;;;10.40;99.90;;;;;;5089758;28;20048;-81
2022/11/11 00:55:46;;;;;;;16.67;6.03;;;10.40;99.90;;;;;;5090580;28;20032;-82
2022/11/11 00:58:11;;;;;;;11.95;5.88;;;10.40;99.90;;;;;;5090575;28;20557;-82
2022/11/11 01:00:37;;;;;;;15.88;6.25;;;10.40;99.90;;;;;;5090346;28;20518;-82
2022/11/11 01:03:03;;;;;;;17.25;6.10;;;10.40;99.90;;;;;;5090002;28;20036;-81
2022/11/11 01:05:28;;;;;;;15.32;5.85;;;10.40;99.90;;;;;;5073408;28;20136;-82
2022/11/11 01:07:54;;;;;;;13.23;5.60;;;10.40;99.90;;;;;;5090564;28;20051;-82
2022/11/11 01:10:42;;;;;;;15.55;6.13;;;10.40;99.90;;;;;;5090061;28;20044;-82
2022/11/11 01:13:14;;;;;;;13.52;6.13;;;10.40;99.90;;;;;;5089860;28;20036;-82
2022/11/11 01:15:41;;;;;;;15.02;6.40;;;10.30;99.90;;;;;;5089868;28;20082;-82
2022/11/11 01:18:08;;;;;;;16.00;6.13;;;10.30;99.90;;;;;;5072354;28;20040;-81
2022/11/11 01:20:36;;;;;;;12.77;6.85;;;10.20;99.90;;;;;;5089502;28;20063;-81
2022/11/11 01:23:03;;;;;;;13.65;6.30;;;10.10;99.90;;;;;;5089197;28;20668;-81
2022/11/11 01:25:31;;;;;;;12.80;5.75;;;10.10;99.90;;;;;;5089591;28;20047;-82
2022/11/11 01:27:57;;;;;;;13.32;6.70;;;10.00;99.90;;;;;;5073236;28;20032;-82
2022/11/11 01:30:22;;;;;;;15.25;6.78;;;10.00;99.90;;;;;;5089081;28;20536;-82
2022/11/11 01:32:48;;;;;;;12.75;5.78;;;10.00;99.90;;;;;;5072705;28;20051;-82
2022/11/11 01:35:13;;;;;;;14.15;6.05;;;10.00;99.90;;;;;;5089306;28;20516;-82
2022/11/11 01:37:39;;;;;;;15.63;6.88;;;9.90;99.90;;;;;;5089319;28;20044;-82
2022/11/11 01:40:06;;;;;;;20.67;6.80;;;10.00;99.90;;;;;;5090100;28;20478;-82
2022/11/11 01:43:04;;;;;;;12.80;6.25;;;9.90;99.90;;;;;;5089266;28;20078;-82
2022/11/11 01:45:46;;;;;;;16.45;6.57;;;9.90;99.90;;;;;;5072084;28;20135;-82
2022/11/11 01:51:43;;;;;;;13.70;6.65;;;9.90;99.90;;;;;;5090061;28;20397;-81
2022/11/11 01:54:15;;;;;;;19.10;7.95;;;9.90;99.90;;;;;;5089436;28;20480;-81
2022/11/11 01:56:42;;;;;;;16.85;7.93;;;9.90;99.90;;;;;;5089604;28;20040;-82
2022/11/11 01:59:11;;;;;;;13.57;6.25;;;9.90;99.90;;;;;;5089469;28;20397;-81
2022/11/11 02:01:39;;;;;;;11.43;5.85;;;9.80;99.90;;;;;;5089648;28;20553;-81
2022/11/11 02:06:53;;;;;;;16.70;7.18;;;9.90;99.90;;;;;;5091745;28;20044;-81
2022/11/11 02:09:21;;;;;;;20.17;8.82;;;9.80;99.90;;;;;;5092473;28;20032;-82
2022/11/11 02:14:41;;;;;;;15.77;8.25;;;9.80;99.90;;;;;;5092893;28;20055;-81
2022/11/11 02:17:10;;;;;;;19.05;8.57;;;9.80;99.90;;;;;;5092628;28;20054;-81
2022/11/11 02:19:55;;;;;;;14.70;8.20;;;9.80;99.90;;;;;;5075472;28;20044;-81
2022/11/11 02:22:41;;;;;;;19.02;9.40;;;9.80;99.90;;;;;;5092429;28;20040;-81
2022/11/11 02:25:10;;;;;;;18.73;9.18;;;9.80;99.90;;;;;;5092942;28;20047;-82
2022/11/11 02:27:39;;;;;;;16.40;8.82;;;9.80;99.90;;;;;;5075989;28;20032;-81
2022/11/11 02:30:14;;;;;;;14.23;7.70;;;9.80;99.90;;;;;;5092595;28;20040;-82
2022/11/11 02:32:41;;;;;;;23.65;10.15;;;9.80;99.90;;;;;;5075190;28;20040;-82
2022/11/11 02:35:16;;;;;;;22.85;10.65;;;9.80;99.90;;;;;;5091945;28;20047;-82
2022/11/11 02:37:45;;;;;;;22.23;9.70;;;9.80;99.90;;;;;;5092490;28;20584;-81
2022/11/11 02:40:15;;;;;;;20.67;9.57;;;9.80;99.90;;;;;;5092547;28;20051;-82
2022/11/11 02:42:40;;;;;;;15.82;8.85;;;9.80;99.90;;;;;;5092114;28;20051;-81
2022/11/11 02:45:06;;;;;;;17.60;9.75;;;9.90;99.90;;;;;;5092561;28;20518;-82
2022/11/11 02:47:32;;;;;;;18.10;9.90;;;9.90;99.90;;;;;;5092412;28;20032;-81
2022/11/11 02:49:57;;;;;;;17.27;10.00;;;9.90;99.90;;;;;;5091973;28;20043;-81
2022/11/11 02:52:23;;;;;;;20.40;9.20;;;9.90;99.90;;;;;;5091394;28;20040;-81
2022/11/11 02:54:49;;;;;;;19.27;10.15;;;9.90;99.90;;;;;;5091740;28;20029;-82
2022/11/11 02:57:15;;;;;;;20.30;11.95;;;9.90;99.90;;;;;;5091982;28;20535;-81
2022/11/11 02:59:41;;;;;;;18.20;10.43;;;9.90;99.90;;;;;;5092081;28;20152;-82
2022/11/11 03:02:07;;;;;;;25.65;11.57;;;9.90;99.90;;;;;;5074780;28;20257;-83
2022/11/11 03:04:33;;;;;;;22.75;11.13;;;9.90;99.90;;;;;;5092132;28;20032;-84
2022/11/11 03:06:59;;;;;;;22.05;10.80;;;9.90;99.90;;;;;;5091426;28;20496;-83
2022/11/11 03:09:25;;;;;;;21.00;11.65;;;9.90;99.90;;;;;;5074563;28;20032;-83
2022/11/11 03:11:51;;;;;;;21.25;10.93;;;10.00;99.90;;;;;;5074258;28;20123;-84
2022/11/11 03:14:16;;;;;;;21.13;11.98;;;10.00;99.90;;;;;;5090847;28;20040;-84
2022/11/11 03:19:26;;;;;;;24.08;12.30;;;10.00;99.90;;;;;;5091953;28;20556;-84
2022/11/11 03:21:52;;;;;;;23.60;10.63;;;10.00;99.90;;;;;;5091910;28;20122;-83
2022/11/11 03:24:17;;;;;;;24.10;12.38;;;10.10;99.90;;;;;;5091746;28;20131;-84
2022/11/11 03:26:43;;;;;;;22.88;12.15;;;10.10;99.90;;;;;;5092021;28;20123;-84
2022/11/11 03:29:08;;;;;;;21.23;12.00;;;10.10;99.90;;;;;;5092070;28;20162;-83
2022/11/11 03:31:34;;;;;;;23.92;11.75;;;10.20;99.90;;;;;;5074980;28;20131;-83
2022/11/11 03:34:16;;;;;;;21.40;11.93;;;10.20;99.90;;;;;;5091365;28;20673;-81
2022/11/11 03:39:30;;;;;;;24.13;12.55;;;10.20;99.90;;;;;;5090778;28;20513;-82
2022/11/11 03:41:56;;;;;;;23.08;12.82;;;10.30;99.90;;;;;;5090524;28;20032;-82
2022/11/11 03:44:22;;;;;;;28.13;14.30;;;10.30;99.90;;;;;;5090646;28;20032;-82
2022/11/11 03:46:48;;;;;;;23.30;13.40;;;10.40;99.90;;;;;;5091406;28;20611;-82
2022/11/11 03:49:13;;;;;;;25.33;15.00;;;10.40;99.90;;;;;;5091335;28;20412;-82
2022/11/11 03:51:39;;;;;;;25.17;14.07;;;10.40;99.90;;;;;;5074625;28;20123;-82
2022/11/11 03:54:04;;;;;;;27.88;16.33;;;10.40;99.90;;;;;;5090922;28;20408;-82
2022/11/11 03:56:30;;;;;;;27.10;13.88;;;10.50;99.90;;;;;;5074668;28;20567;-82
2022/11/11 03:58:55;;;;;;;20.15;11.80;;;10.40;99.90;;;;;;5091273;28;20110;-82
2022/11/11 04:12:21;;;;;;;25.80;13.93;;;10.50;99.90;;;;;;5089628;28;20456;-82
2022/11/11 04:17:30;;;;;;;24.60;15.23;;;10.60;99.90;;;;;;5091095;28;20083;-82
2022/11/11 04:22:41;;;;;;;23.55;14.43;;;10.60;99.90;;;;;;5090521;28;20048;-82
2022/11/11 04:29:27;;;;;;;24.92;13.30;;;10.60;99.90;;;;;;5090425;28;20040;-82
2022/11/11 04:30:42;;;;;;;26.05;14.23;;;10.70;99.90;;;;;;5090540;28;20035;-82
2022/11/11 04:33:08;;;;;;;22.77;12.35;;;10.70;99.90;;;;;;5071440;28;20063;-82
2022/11/11 04:35:34;;;;;;;28.67;14.18;;;10.70;99.90;;;;;;5073966;28;20382;-82
2022/11/11 04:43:28;;;;;;;22.42;11.75;;;10.70;99.90;;;;;;5089147;28;20044;-82
2022/11/11 04:45:57;;;;;;;22.52;12.57;;;10.80;99.90;;;;;;5073103;28;20044;-82
2022/11/11 04:48:23;;;;;;;24.33;14.10;;;10.80;99.90;;;;;;5090377;28;20075;-82
2022/11/11 04:50:48;;;;;;;25.75;13.27;;;10.80;99.90;;;;;;5073749;28;20076;-82
2022/11/11 04:53:14;;;;;;;24.38;12.93;;;10.80;99.90;;;;;;5089850;28;20040;-82
2022/11/11 04:58:32;;;;;;;27.48;12.77;;;10.80;99.90;;;;;;5090287;28;20051;-82
2022/11/11 05:00:58;;;;;;;25.52;13.48;;;10.80;99.90;;;;;;5090383;28;20044;-82
2022/11/11 05:03:23;;;;;;;27.38;13.48;;;10.80;99.90;;;;;;5089943;28;20048;-82
2022/11/11 05:08:57;;;;;;;23.20;13.65;;;10.80;99.90;;;;;;5090419;28;20040;-82
2022/11/11 05:11:28;;;;;;;23.00;13.23;;;10.80;99.90;;;;;;5072776;28;20575;-82
2022/11/11 05:22:22;;;;;;;23.60;13.68;;;10.80;99.90;;;;;;5089683;28;20044;-82
2022/11/11 05:27:32;;;;;;;23.67;12.70;;;10.80;99.90;;;;;;5089839;28;20126;-82
2022/11/11 05:29:58;;;;;;;20.83;11.57;;;10.80;99.90;;;;;;5090314;28;20139;-82
2022/11/11 05:32:24;;;;;;;26.60;14.48;;;10.80;99.90;;;;;;5089644;28;20089;-82
2022/11/11 05:34:50;;;;;;;22.58;12.13;;;10.80;99.90;;;;;;5090183;28;20040;-82
2022/11/11 05:37:16;;;;;;;23.67;12.70;;;10.80;99.90;;;;;;5089822;28;20055;-82
2022/11/11 05:39:42;;;;;;;24.25;14.10;;;10.80;99.90;;;;;;5090043;28;20043;-82
2022/11/11 05:42:08;;;;;;;24.10;13.52;;;10.80;99.90;;;;;;5075974;28;20085;-82
2022/11/11 05:44:34;;;;;;;24.15;12.88;;;10.80;99.90;;;;;;5092969;28;20151;-82
2022/11/11 05:47:00;;;;;;;27.02;13.18;;;10.80;99.90;;;;;;5092975;28;20124;-82
2022/11/11 05:49:26;;;;;;;23.30;13.50;;;10.80;99.90;;;;;;5075817;28;20046;-82
2022/11/11 05:51:52;;;;;;;26.58;13.23;;;10.80;99.90;;;;;;5093315;28;20122;-82
2022/11/11 05:54:18;;;;;;;20.67;11.90;;;10.80;99.90;;;;;;5076497;28;20472;-82
2022/11/11 05:56:44;;;;;;;23.17;12.32;;;10.80;99.90;;;;;;5077052;28;20100;-82
2022/11/11 05:59:10;;;;;;;24.23;12.82;;;10.80;99.90;;;;;;5093466;28;20044;-82
2022/11/11 06:01:36;;;;;;;23.02;12.40;;;10.80;99.90;;;;;;5076529;28;20036;-82
2022/11/11 06:04:02;;;;;;;22.40;12.48;;;10.80;99.90;;;;;;5076137;28;20036;-82
2022/11/11 06:06:27;;;;;;;25.55;12.40;;;10.90;99.90;;;;;;5092661;28;20043;-82
2022/11/11 06:08:53;;;;;;;19.63;10.85;;;10.80;99.90;;;;;;5092896;28;20039;-83
2022/11/11 06:11:19;;;;;;;21.45;12.40;;;10.80;99.90;;;;;;5089980;28;20530;-82
2022/11/11 06:13:44;;;;;;;22.42;12.20;;;10.80;99.90;;;;;;5091658;28;20036;-82
2022/11/11 06:16:10;;;;;;;23.83;13.25;;;10.90;99.90;;;;;;5092522;28;20197;-82
2022/11/11 06:18:35;;;;;;;21.88;11.23;;;10.90;99.90;;;;;;5075956;28;20036;-82
2022/11/11 06:21:01;;;;;;;22.23;12.38;;;10.80;99.90;;;;;;5092954;28;20131;-82
2022/11/11 06:23:28;;;;;;;24.25;12.40;;;10.80;99.90;;;;;;5092115;28;20508;-82
2022/11/11 06:26:12;;;;;;;21.33;11.68;;;10.80;99.90;;;;;;5092692;28;20114;-82
2022/11/11 06:28:40;;;;;;;21.73;11.90;;;10.80;99.90;;;;;;5075944;28;20040;-82
2022/11/11 06:31:08;;;;;;;21.83;12.18;;;10.80;99.90;;;;;;5075446;28;20417;-82
2022/11/11 06:33:35;;;;;;;19.83;11.88;;;10.80;99.90;;;;;;5075125;28;20513;-82
2022/11/11 06:36:01;;;;;;;21.73;11.80;;;10.80;99.90;;;;;;5092756;28;20187;-82
2022/11/11 06:38:26;;;;;;;18.73;10.98;;;10.80;99.90;;;;;;5091662;28;20036;-82
2022/11/11 06:40:52;;;;;;;21.77;11.13;;;10.80;99.90;;;;;;5074172;28;20474;-82
2022/11/11 06:43:17;;;;;;;22.52;12.15;;;10.80;99.90;;;;;;5091037;28;20051;-82
2022/11/11 06:45:44;;;;;;;19.20;10.13;;;10.80;99.90;;;;;;5091136;28;20032;-82
2022/11/11 06:48:10;;;;;;;20.95;11.45;;;10.80;99.90;;;;;;5091762;28;20040;-82
2022/11/11 06:50:36;;;;;;;21.88;11.10;;;10.80;99.90;;;;;;5092042;28;20047;-82
2022/11/11 06:53:07;;;;;;;20.80;11.52;;;10.80;99.90;;;;;;5091606;28;20040;-82
2022/11/11 06:55:33;;;;;;;22.05;11.77;;;10.80;99.90;;;;;;5092031;28;20447;-82
2022/11/11 06:58:16;;;;;;;20.45;11.25;;;10.80;99.90;;;;;;5075459;28;20036;-82
2022/11/11 07:00:43;;;;;;;20.05;12.05;;;10.80;99.90;;;;;;5091671;28;20392;-82
2022/11/11 07:03:11;;;;;;;22.70;11.48;;;10.80;99.90;;;;;;5074743;28;20044;-82
2022/11/11 07:05:37;;;;;;;16.98;9.63;;;10.80;99.90;;;;;;5090050;28;20058;-82
2022/11/11 07:08:04;;;;;;;18.02;10.75;;;10.80;99.90;;;;;;5090862;28;20564;-82
2022/11/11 07:10:31;;;;;;;25.67;12.48;;;10.80;99.90;;;;;;5073926;28;20063;-82
2022/11/11 07:12:56;;;;;;;19.27;11.35;;;10.80;99.90;;;;;;5088625;28;20036;-82
2022/11/11 07:15:22;;;;;;;20.25;11.05;;;10.80;99.90;;;;;;5091019;28;20044;-82
2022/11/11 07:17:47;;;;;;;19.65;10.95;;;10.80;99.90;;;;;;5091332;28;20547;-82
2022/11/11 07:20:13;;;;;;;19.73;9.85;;;10.80;99.90;;;;;;5093039;28;20105;-82
2022/11/11 07:22:39;;;;;;;18.00;10.07;;;10.80;99.90;;;;;;5090967;28;20048;-82
2022/11/11 07:25:05;;;;;;;20.15;10.38;;;10.80;99.90;;;;;;5074378;28;20036;-82
2022/11/11 07:27:30;;;;;;;19.40;9.88;;;10.80;99.90;;;;;;5091516;28;20564;-82
2022/11/11 07:29:56;;;;;;;20.73;10.00;;;10.80;99.90;;;;;;5091288;28;20044;-82
2022/11/11 07:32:21;;;;;;;19.58;9.65;;;10.80;99.90;;;;;;5090843;28;20044;-82
2022/11/11 07:34:49;;;;;;;20.13;10.40;;;10.80;99.90;;;;;;5091500;28;20126;-83
2022/11/11 07:37:14;;;;;;;20.10;10.90;;;10.80;99.90;;;;;;5090467;28;20646;-82
2022/11/11 07:39:40;;;;;;;18.92;11.45;;;10.80;99.90;;;;;;5090315;28;20288;-82
2022/11/11 07:42:05;;;;;;;22.40;11.90;;;10.80;99.90;;;;;;5089466;28;20524;-82
2022/11/11 07:44:31;;;;;;;19.55;11.13;;;10.80;99.90;;;;;;5073451;28;20036;-82
2022/11/11 07:46:57;;;;;;;18.67;10.52;;;10.80;99.90;;;;;;5073403;28;20024;-82
2022/11/11 07:49:22;;;;;;;19.63;10.73;;;10.80;99.90;;;;;;5090958;28;20406;-82
2022/11/11 07:51:48;;;;;;;20.88;10.85;;;10.80;99.90;;;;;;5090813;28;20036;-82
2022/11/11 07:54:13;;;;;;;21.85;11.02;;;10.80;99.90;;;;;;5090471;28;20055;-82
2022/11/11 07:56:39;;;;;;;17.42;10.52;;;10.80;99.90;;;;;;5090614;28;20040;-82
2022/11/11 07:59:04;;;;;;;22.92;11.13;;;10.80;99.90;;;;;;5073845;28;20044;-82
2022/11/11 08:01:30;;;;;;;21.70;11.13;;;10.90;99.90;;;;;;5073856;28;20203;-82
2022/11/11 08:03:56;;;;;;;21.48;11.38;;;10.80;99.90;;;;;;5089713;28;20032;-82
2022/11/11 08:06:22;;;;;;;16.23;9.20;;;10.80;99.90;;;;;;5090274;28;20066;-82
2022/11/11 08:08:48;;;;;;;19.95;9.85;;;10.80;99.90;;;;;;5106743;28;20039;-82
2022/11/11 08:11:15;;;;;;;18.33;10.02;;;10.80;99.90;;;;;;5072399;28;20039;-82
2022/11/11 08:13:42;;;;;;;19.77;10.40;;;10.80;99.90;;;;;;5072527;28;20043;-83
2022/11/11 08:16:09;;;;;;;20.30;10.18;;;10.80;99.90;;;;;;5090232;28;20044;-83
2022/11/11 08:18:35;;;;;;;19.20;10.00;;;10.80;99.90;;;;;;5073614;28;20131;-82
2022/11/11 08:21:02;;;;;;;19.52;11.50;;;10.80;99.90;;;;;;5090363;28;20130;-82
2022/11/11 08:23:31;;;;;;;25.88;10.80;;;10.80;99.90;;;;;;5073029;28;20143;-82
2022/11/11 08:26:02;;;;;;;16.77;9.02;;;10.80;99.90;;;;;;5073007;28;20042;-82
2022/11/11 08:28:29;;;;;;;19.38;11.13;;;10.80;99.90;;;;;;5073126;28;20047;-83
2022/11/11 08:30:58;;;;;;;19.90;11.65;;;10.80;99.90;;;;;;5123930;27;20027;-83
2022/11/11 08:33:24;;;;;;;20.05;11.38;;;10.80;99.90;;;;;;5089698;28;20036;-83
2022/11/11 08:35:53;;;;;;;19.40;10.70;;;10.80;99.90;;;;;;5073509;28;20126;-82
2022/11/11 08:38:19;;;;;;;18.60;10.07;;;10.80;99.90;;;;;;5089785;28;20051;-82
2022/11/11 08:40:45;;;;;;;21.73;11.07;;;10.80;99.90;;;;;;5089123;28;20048;-82
2022/11/11 08:43:11;;;;;;;19.90;10.73;;;10.80;99.90;;;;;;5088816;28;20759;-82
2022/11/11 08:45:36;;;;;;;25.58;10.98;;;10.80;99.90;;;;;;5089472;28;20040;-82
2022/11/11 08:48:02;;;;;;;20.02;11.05;;;10.80;99.90;;;;;;5072386;28;20565;-82
2022/11/11 08:50:27;;;;;;;16.65;9.60;;;10.90;99.90;;;;;;5088609;28;20032;-82
2022/11/11 08:52:53;;;;;;;18.55;10.32;;;10.90;99.90;;;;;;5073214;28;20233;-82
2022/11/11 08:55:19;;;;;;;20.60;10.63;;;10.90;99.90;;;;;;5073352;28;20093;-82
2022/11/11 08:57:45;;;;;;;16.65;9.98;;;10.90;99.90;;;;;;5091763;28;20123;-82
2022/11/11 09:00:12;;;;;;;20.60;10.70;;;10.90;99.90;;;;;;5090577;28;20048;-83
2022/11/11 09:02:38;;;;;;;21.08;10.70;;;10.90;99.90;;;;;;5090034;28;20078;-83
2022/11/11 09:05:05;;;;;;;20.58;11.13;;;10.90;99.90;;;;;;5089955;28;20063;-83
2022/11/11 09:07:31;;;;;;;20.23;11.88;;;11.00;99.90;;;;;;5070611;28;20048;-83
2022/11/11 09:09:56;;;;;;;22.75;12.48;;;10.90;99.90;;;;;;5089509;28;20047;-82
2022/11/11 09:12:22;;;;;;;20.52;11.88;;;10.90;99.90;;;;;;5089355;28;20040;-82
2022/11/11 09:14:48;;;;;;;22.13;11.20;;;11.00;99.90;;;;;;5091250;28;20040;-82
2022/11/11 09:17:14;;;;;;;20.88;11.80;;;11.00;99.90;;;;;;5093942;28;20105;-82
2022/11/11 09:19:40;;;;;;;25.00;13.05;;;11.00;99.90;;;;;;5077179;28;20040;-82
2022/11/11 09:22:06;;;;;;;21.58;12.32;;;11.00;99.90;;;;;;5093313;28;20044;-82
2022/11/11 09:24:31;;;;;;;24.73;13.82;;;11.00;99.90;;;;;;5076833;28;20050;-82
2022/11/11 09:26:57;;;;;;;24.23;13.23;;;11.00;99.90;;;;;;5076803;28;20067;-82
2022/11/11 09:29:22;;;;;;;24.08;12.05;;;11.00;99.90;;;;;;5093928;28;20122;-82
2022/11/11 09:31:48;;;;;;;25.65;13.35;;;11.00;99.90;;;;;;5093848;28;20032;-82
2022/11/11 09:34:14;;;;;;;24.20;12.23;;;11.00;99.90;;;;;;5076667;28;20040;-82
2022/11/11 09:36:39;;;;;;;23.05;12.77;;;11.00;99.90;;;;;;5093385;28;20572;-82
2022/11/11 09:39:05;;;;;;;24.90;12.65;;;11.00;99.90;;;;;;5076702;28;20085;-82
2022/11/11 09:42:01;;;;;;;23.13;13.65;;;11.00;99.90;;;;;;5093714;28;20108;-82
2022/11/11 09:44:54;;;;;;;20.67;12.25;;;11.00;99.90;;;;;;5076164;28;20093;-82
2022/11/11 09:47:23;;;;;;;27.02;12.02;;;10.90;99.90;;;;;;5092772;28;20111;-82
2022/11/11 09:50:02;;;;;;;21.20;11.50;;;10.90;99.90;;;;;;5092540;28;20032;-82
2022/11/11 09:52:48;;;;;;;22.67;11.55;;;10.90;99.90;;;;;;5075666;28;20059;-82
2022/11/11 09:55:32;;;;;;;20.75;10.63;;;10.90;99.90;;;;;;5086623;28;20184;-82
2022/11/11 09:58:04;;;;;;;19.42;11.35;;;10.90;99.90;;;;;;5093429;28;20405;-82
2022/11/11 10:00:39;;;;;;;19.92;11.15;;;10.90;99.90;;;;;;5093077;28;20036;-82
2022/11/11 10:03:14;;;;;;;19.83;11.40;;;10.80;99.90;;;;;;5092578;28;20044;-82
2022/11/11 10:05:44;;;;;;;18.52;10.98;;;10.80;99.90;;;;;;5092877;28;20119;-82
2022/11/11 10:08:16;;;;;;;20.35;11.40;;;10.80;99.90;;;;;;5093037;28;20043;-82
2022/11/11 10:10:54;;;;;;;21.02;10.57;;;10.80;99.90;;;;;;5091793;28;20043;-82
2022/11/11 10:13:27;;;;;;;18.08;9.88;;;10.80;99.90;;;;;;5089287;28;20047;-82
2022/11/11 10:16:07;;;;;;;17.63;11.02;;;10.80;99.90;;;;;;5091438;28;20036;-82
2022/11/11 10:18:40;;;;;;;19.58;11.15;;;10.80;99.90;;;;;;5074965;28;20382;-82
2022/11/11 10:21:13;;;;;;;20.67;9.65;;;10.80;99.90;;;;;;5090239;28;20044;-82
2022/11/11 10:23:39;;;;;;;14.88;8.23;;;10.70;99.90;;;;;;5088387;28;20032;-82
2022/11/11 10:26:20;;;;;;;19.20;10.05;;;10.70;99.90;;;;;;5090582;28;20067;-82
2022/11/11 10:28:48;;;;;;;19.20;9.65;;;10.80;99.90;;;;;;5090806;28;20036;-82
2022/11/11 10:31:19;;;;;;;16.05;9.05;;;10.80;99.90;;;;;;5092402;28;20096;-82
2022/11/11 10:34:08;;;;;;;17.63;9.70;;;10.80;99.90;;;;;;5092301;28;20504;-82
2022/11/11 10:36:55;;;;;;;15.73;8.20;;;10.80;99.90;;;;;;5075441;28;20081;-82
2022/11/11 10:39:33;;;;;;;16.10;9.38;;;10.80;99.90;;;;;;5092087;28;20046;-82
2022/11/11 10:41:58;;;;;;;16.80;9.10;;;10.90;99.90;;;;;;5092355;28;20069;-82
2022/11/11 10:44:30;;;;;;;15.43;8.85;;;11.00;99.90;;;;;;5075245;28;20040;-82
2022/11/11 10:47:17;;;;;;;18.00;9.75;;;11.20;99.90;;;;;;5092077;28;20128;-82
2022/11/11 10:50:03;;;;;;;16.88;9.20;;;11.50;99.90;;;;;;5075124;28;20067;-82
2022/11/11 10:52:34;;;;;;;15.07;8.50;;;11.80;99.90;;;;;;5075088;28;20043;-82
2022/11/11 10:55:10;;;;;;;15.82;8.07;;;11.90;99.90;;;;;;5091649;28;20131;-82
2022/11/11 10:57:55;;;;;;;14.90;9.57;;;12.10;99.90;;;;;;5092161;28;20153;-83
2022/11/11 11:00:21;;;;;;;16.63;8.82;;;12.20;99.90;;;;;;5092235;28;20059;-83
2022/11/11 11:03:30;;;;;;;16.17;8.27;;;12.20;99.90;;;;;;5075016;28;20036;-83
2022/11/11 11:06:05;;;;;;;13.05;8.27;;;12.40;99.90;;;;;;5091925;28;20419;-83
2022/11/11 11:08:39;;;;;;;17.50;14.77;;;12.50;99.90;;;;;;5074705;28;20126;-83
2022/11/11 11:11:28;;;;;;;14.00;8.70;;;12.60;99.90;;;;;;5091419;28;20040;-83
2022/11/11 11:14:00;;;;;;;15.10;8.00;;;12.70;99.90;;;;;;5124537;27;20055;-83
2022/11/11 11:16:31;;;;;;;17.45;14.25;;;12.80;99.90;;;;;;5074684;28;20032;-83
2022/11/11 11:19:21;;;;;;;15.63;8.95;;;12.90;99.90;;;;;;5074715;28;20560;-83
2022/11/11 11:21:51;;;;;;;16.42;8.40;;;13.00;99.90;;;;;;5091801;28;20058;-83
2022/11/11 11:24:35;;;;;;;16.67;8.63;;;13.10;99.90;;;;;;5091057;28;20051;-83
2022/11/11 11:27:06;;;;;;;13.90;8.27;;;13.20;99.90;;;;;;5091147;28;20036;-83
2022/11/11 11:29:36;;;;;;;16.70;12.52;;;13.30;99.90;;;;;;5091406;28;20033;-82
2022/11/11 11:32:13;;;;;;;15.18;10.00;;;13.40;99.90;;;;;;5091250;28;20047;-83
2022/11/11 11:34:47;;;;;;;14.20;8.15;;;13.40;99.90;;;;;;5092639;28;20040;-83
2022/11/11 11:37:13;;;;;;;17.63;13.02;;;13.40;99.90;;;;;;5073489;28;20071;-83
2022/11/11 11:39:39;;;;;;;14.68;8.73;;;13.50;99.90;;;;;;5089376;28;20123;-83
2022/11/11 11:42:06;;;;;;;15.20;12.65;;;13.50;99.90;;;;;;5090412;28;20050;-83
2022/11/11 11:44:34;;;;;;;15.93;12.73;;;13.60;99.90;;;;;;5091164;28;20036;-83
2022/11/11 11:47:12;;;;;;;15.00;12.50;;;13.70;99.90;;;;;;5091052;28;20502;-83
2022/11/11 11:49:56;;;;;;;15.93;8.48;;;13.80;99.90;;;;;;5073110;28;20032;-83
2022/11/11 11:52:30;;;;;;;15.93;8.40;;;13.80;99.90;;;;;;5096875;28;20054;-83
2022/11/11 11:55:17;;;;;;;14.55;11.90;;;13.80;99.90;;;;;;5096313;28;20089;-83
2022/11/11 11:57:52;;;;;;;14.95;12.10;;;13.80;99.90;;;;;;5088560;28;20036;-83
2022/11/11 12:00:28;;;;;;;16.90;12.27;;;13.90;99.90;;;;;;5106772;27;20079;-83
2022/11/11 12:03:10;;;;;;;13.70;8.30;;;13.90;99.90;;;;;;5087125;28;20131;-83
2022/11/11 12:05:42;;;;;;;15.50;7.35;;;14.10;99.90;;;;;;5070826;28;20051;-83
2022/11/11 12:08:32;;;;;;;15.43;12.02;;;14.30;99.90;;;;;;5087182;28;20040;-83
2022/11/11 12:11:13;;;;;;;13.20;11.70;;;14.60;99.90;;;;;;5070086;28;20048;-83
2022/11/11 12:13:47;;;;;;;15.52;8.18;;;14.70;99.90;;;;;;5070330;28;20398;-83
2022/11/11 12:16:40;;;;;;;11.18;7.47;;;14.80;99.90;;;;;;5087294;28;20122;-83
2022/11/11 12:19:21;;;;;;;13.75;11.27;;;14.90;99.90;;;;;;5070041;28;20041;-83
2022/11/11 12:21:56;;;;;;;14.30;8.32;;;15.10;99.90;;;;;;5086085;28;20417;-82
2022/11/11 12:24:31;;;;;;;14.18;10.25;;;15.40;99.90;;;;;;5086295;28;20041;-82
2022/11/11 12:27:14;;;;;;;11.90;6.82;;;15.60;99.90;;;;;;5103977;28;20378;-82
2022/11/11 12:30:00;;;;;;;11.88;9.23;;;15.90;99.90;;;;;;5086908;28;20044;-82
2022/11/11 12:32:51;;;;;;;12.27;9.70;;;16.30;99.90;;;;;;5075719;28;20077;-82
2022/11/11 12:35:45;;;;;;;13.10;9.98;;;16.70;99.90;;;;;;5071020;28;20090;-83
2022/11/11 12:38:38;;;;;;;14.90;7.28;;;17.00;99.90;;;;;;5089390;28;20097;-83
2022/11/11 12:41:32;;;;;;;12.38;8.68;;;17.50;99.90;;;;;;5089147;28;20040;-83
2022/11/11 12:44:09;;;;;;;13.02;8.07;;;18.10;99.90;;;;;;5071652;28;20119;-83
2022/11/11 12:47:23;;;;;;;11.07;7.93;;;18.60;98.30;;;;;;5089258;28;20032;-83
2022/11/11 12:50:30;;;;;;;11.57;7.47;;;19.20;91.80;;;;;;5110310;27;20052;-83
2022/11/11 12:53:21;;;;;;;11.05;7.28;;;19.70;90.70;;;;;;5113808;27;20058;-83
2022/11/11 12:56:13;;;;;;;10.45;7.05;;;19.70;85.70;;;;;;5071510;28;20109;-83
2022/11/11 12:59:04;;;;;;;10.47;7.27;;;20.00;84.70;;;;;;5087403;28;20140;-83
2022/11/11 13:01:43;;;;;;;10.82;7.28;;;20.30;83.90;;;;;;5088959;28;20498;-83
2022/11/11 13:04:40;;;;;;;11.82;7.60;;;20.30;78.80;;;;;;5088393;28;20032;-83
2022/11/11 13:07:20;;;;;;;11.07;6.65;;;20.30;78.50;;;;;;5087774;28;20114;-83
2022/11/11 13:10:22;;;;;;;11.32;7.47;;;20.40;77.20;;;;;;5071376;28;20036;-83
2022/11/11 13:13:12;;;;;;;11.20;6.70;;;20.80;76.70;;;;;;5087820;28;20535;-83
2022/11/11 13:15:38;;;;;;;11.77;7.43;;;21.10;73.20;;;;;;5086898;28;20094;-83
2022/11/11 13:18:11;;;;;;;10.85;6.63;;;21.40;71.10;;;;;;5089147;28;20451;-83
2022/11/11 13:20:55;;;;;;;11.18;6.50;;;21.40;70.60;;;;;;5087938;28;20556;-83
2022/11/11 13:23:21;;;;;;;11.52;7.18;;;21.10;69.50;;;;;;5086943;28;20051;-83
2022/11/11 13:25:52;;;;;;;10.18;6.32;;;20.80;70.70;;;;;;5089108;28;20409;-83
2022/11/11 13:28:47;;;;;;;11.25;6.60;;;21.20;71.50;;;;;;5090884;28;20040;-83
2022/11/11 13:31:29;;;;;;;11.60;7.25;;;21.20;69.90;;;;;;5089592;28;20044;-83
2022/11/11 13:34:02;;;;;;;12.13;7.18;;;21.00;69.60;;;;;;5089532;28;20453;-83
2022/11/11 13:36:32;;;;;;;11.98;7.03;;;20.70;70.70;;;;;;5072681;28;20044;-83
2022/11/11 13:39:00;;;;;;;11.10;7.07;;;20.40;71.30;;;;;;5072690;28;20040;-83
2022/11/11 13:41:32;;;;;;;11.80;7.03;;;20.30;72.10;;;;;;5089545;28;20040;-83
2022/11/11 13:44:01;;;;;;;12.55;7.20;;;20.20;72.40;;;;;;5072315;28;20080;-83
2022/11/11 13:46:33;;;;;;;12.48;6.75;;;20.40;72.60;;;;;;5072743;28;20139;-83
2022/11/11 13:49:01;;;;;;;10.00;6.77;;;20.40;72.00;;;;;;5089565;28;20055;-83
2022/11/11 13:51:37;;;;;;;11.30;6.68;;;20.40;73.40;;;;;;5089360;28;20047;-83
2022/11/11 13:54:25;;;;;;;10.93;6.30;;;20.90;72.30;;;;;;5072205;28;20036;-83
2022/11/11 13:56:51;;;;;;;11.63;6.47;;;21.20;71.60;;;;;;5122429;27;20051;-83
2022/11/11 13:59:40;;;;;;;9.55;5.82;;;21.20;70.00;;;;;;5089227;28;20047;-83
2022/11/11 14:02:18;;;;;;;10.45;6.15;;;21.10;70.00;;;;;;5090775;28;20568;-83
2022/11/11 14:05:02;;;;;;;11.63;5.97;;;21.00;69.80;;;;;;5092914;28;20082;-83